Alexis, NC

7:15 PM EST on November 25, 2014 (GMT -0500)
Mayberry road | Change Station
CLOSE
Current Station
Personal Weather Station
Location: Dallas, NC
Elevation: 807 ft
Nearby Weather Stations

Elev 807 ft 35.38 °N, 81.12 °W | Updated 15 seconds ago

Overcast
Overcast
52.9 °F
Feels Like 52.9 °F
N
0.0
Wind Variable Wind from West
Gusts 1.6 mph

Today
High -- | Low -- °F
--% Chance of Precip.
Yesterday
High -- | Low -- °F
Precip. -- in
7:09 AM 5:13 PM
Waxing Crescent, 15% visible
Pressure 30.05 in
Visibility 10.0 miles
Clouds Mostly Cloudy 12000 ft
Dew Point 44 °F
Humidity 71%
Rainfall 0.00 in
Snow Depth Not available.
UV 0 out of 12
Pollen 1.60 out of 12
Air Quality Not available.
Flu Activity Not available.
METAR KIPJ 252355Z AUTO 00000KT 10SM BKN120 11/04 A3005 RMK AO2 T01060040 10155 20105

More Conditions Fewer Conditions

Pressure 30.05 in
Visibility 10.0 miles
Clouds Mostly Cloudy 12000 ft
Dew Point 44 °F
Humidity 71%
Rainfall 0.00 in
Snow Depth Not available.
UV 0 out of 12
Pollen 1.60 out of 12
Air Quality Not available.
Flu Activity Not available.
METAR KIPJ 252355Z AUTO 00000KT 10SM BKN120 11/04 A3005 RMK AO2 T01060040 10155 20105

More Conditions Fewer Conditions

10-Day Weather Forecast

Almanac

Astronomy

Nov. 25, 2014 Rise Set
Actual Time
Civil Twilight
Nautical Twilight
Astronomical Twilight
Moon
Length of Visible Light
Length of Day
Tomorrow will be .
, % of the Moon is Illuminated

Today's Extremes

State Highs State Lows

Community

WunderPhotos

Upload Photos

1,773,625 photos uploaded!

WunderBlogs® & News

Nearby

Air Quality

  Air Quality AQ Index Pollutant
Not available.

Snow Depth

Station Depth Elevation

Earthquake Activity

City Distance Mag. Time & Date
Minimum magnitude displayed is 2.5.

Coastal Water Temperatures

Place Temperature

Nearby Weather Stations